createdAt,value
2018-04-19T00:00:05.419Z,101206.02
2018-04-19T00:02:39.309Z,101207.83
2018-04-19T00:05:13.234Z,101208.00
2018-04-19T00:07:47.018Z,101204.57
2018-04-19T00:10:20.696Z,101201.98
2018-04-19T00:12:54.448Z,101208.28
2018-04-19T00:15:28.342Z,101209.30
2018-04-19T00:18:01.792Z,101203.45
2018-04-19T00:20:35.332Z,101197.58
2018-04-19T00:23:09.302Z,101198.12
2018-04-19T00:25:43.261Z,101195.70
2018-04-19T00:28:16.799Z,101194.99
2018-04-19T00:30:50.536Z,101200.79
2018-04-19T00:33:24.274Z,101200.03
2018-04-19T00:35:57.711Z,101195.99
2018-04-19T00:38:32.468Z,101195.11
2018-04-19T00:41:07.556Z,101190.13
2018-04-19T00:43:42.011Z,101191.61
2018-04-19T00:46:15.899Z,101185.62
2018-04-19T00:48:49.508Z,101190.94
2018-04-19T00:51:22.919Z,101189.63
2018-04-19T00:53:56.771Z,101187.19
2018-04-19T00:56:30.449Z,101184.71
2018-04-19T00:59:05.163Z,101185.59
2018-04-19T01:01:38.787Z,101182.61
2018-04-19T01:04:12.523Z,101190.05
2018-04-19T01:06:46.523Z,101194.53
2018-04-19T01:09:20.055Z,101187.36
2018-04-19T01:11:54.421Z,101191.86
2018-04-19T01:14:28.615Z,101196.56
2018-04-19T01:17:02.185Z,101188.83
2018-04-19T01:19:35.968Z,101188.53
2018-04-19T01:22:10.191Z,101185.12
2018-04-19T01:24:45.685Z,101184.26
2018-04-19T01:27:19.337Z,101187.92
2018-04-19T01:29:53.148Z,101188.91
2018-04-19T01:32:27.656Z,101184.97
2018-04-19T01:35:01.429Z,101180.72
2018-04-19T01:37:35.367Z,101180.83
2018-04-19T01:40:10.335Z,101180.79
2018-04-19T01:42:44.337Z,101181.84
2018-04-19T01:45:18.632Z,101181.69
2018-04-19T01:47:52.184Z,101185.26
2018-04-19T01:50:25.940Z,101179.09
2018-04-19T01:53:00.029Z,101178.63
2018-04-19T01:55:33.549Z,101179.12
2018-04-19T01:58:08.338Z,101181.53
2018-04-19T02:00:42.588Z,101186.25
2018-04-19T02:03:16.960Z,101179.69
2018-04-19T02:05:50.607Z,101178.95
2018-04-19T02:08:24.784Z,101179.06
2018-04-19T02:10:58.400Z,101179.47
2018-04-19T02:13:32.490Z,101180.42
2018-04-19T02:16:06.463Z,101180.80
2018-04-19T02:18:40.309Z,101182.43
2018-04-19T02:21:13.976Z,101181.58
2018-04-19T02:23:48.969Z,101178.17
2018-04-19T02:26:22.909Z,101178.26
2018-04-19T02:28:56.393Z,101181.62
2018-04-19T02:31:31.007Z,101178.89
2018-04-19T02:34:06.521Z,101180.04
2018-04-19T02:36:40.061Z,101179.97
2018-04-19T02:39:14.290Z,101177.25
2018-04-19T02:41:48.105Z,101168.38
2018-04-19T02:44:21.648Z,101172.82
2018-04-19T02:46:55.410Z,101168.06
2018-04-19T02:49:29.510Z,101166.79
2018-04-19T02:52:03.400Z,101161.98
2018-04-19T02:54:37.478Z,101166.77
2018-04-19T02:57:11.441Z,101159.63
2018-04-19T02:59:45.433Z,101157.56
2018-04-19T03:02:19.475Z,101158.15
2018-04-19T03:04:53.805Z,101153.70
2018-04-19T03:07:28.504Z,101148.13
2018-04-19T03:10:03.003Z,101148.59
2018-04-19T03:12:36.580Z,101150.30
2018-04-19T03:15:10.596Z,101156.32
2018-04-19T03:17:44.052Z,101156.55
2018-04-19T03:20:17.608Z,101150.56
2018-04-19T03:22:51.324Z,101150.70
2018-04-19T03:25:25.205Z,101146.48
2018-04-19T03:27:58.834Z,101146.87
2018-04-19T03:30:32.815Z,101147.73
2018-04-19T03:33:06.837Z,101140.49
2018-04-19T03:35:40.863Z,101146.02
2018-04-19T03:38:14.592Z,101142.44
2018-04-19T03:40:49.251Z,101137.36
2018-04-19T03:43:23.685Z,101137.79
2018-04-19T03:45:57.513Z,101137.88
2018-04-19T03:48:36.626Z,101137.80
2018-04-19T03:51:18.628Z,101133.17
2018-04-19T03:53:52.467Z,101135.20
2018-04-19T03:56:26.758Z,101134.15
2018-04-19T03:59:02.927Z,101135.47
2018-04-19T04:01:37.052Z,101129.00
2018-04-19T04:04:11.016Z,101136.35
2018-04-19T04:06:44.836Z,101131.17
2018-04-19T04:09:18.813Z,101129.16
2018-04-19T04:11:52.817Z,101128.23
2018-04-19T04:14:27.332Z,101129.88
2018-04-19T04:17:20.533Z,101128.91
2018-04-19T04:22:07.288Z,101126.40
2018-04-19T04:24:41.429Z,101118.86
2018-04-19T04:27:15.359Z,101127.27
2018-04-19T04:29:49.406Z,101120.53
2018-04-19T04:32:23.061Z,101124.32
2018-04-19T04:34:57.217Z,101128.56
2018-04-19T04:37:31.381Z,101122.48
2018-04-19T04:40:06.057Z,101124.69
2018-04-19T04:42:39.938Z,101120.37
2018-04-19T04:45:14.562Z,101128.81
2018-04-19T04:47:48.470Z,101121.13
2018-04-19T04:50:23.767Z,101131.84
2018-04-19T04:52:57.357Z,101121.27
2018-04-19T04:55:32.801Z,101129.42
2018-04-19T04:58:08.061Z,101125.30
2018-04-19T05:00:42.520Z,101131.58
2018-04-19T05:03:16.260Z,101130.41
2018-04-19T05:05:49.864Z,101124.12
2018-04-19T05:08:30.375Z,101125.09
2018-04-19T05:11:13.383Z,101124.23
2018-04-19T05:13:49.071Z,101129.09
2018-04-19T05:16:24.016Z,101129.34
2018-04-19T05:18:58.792Z,101131.19
2018-04-19T05:21:32.500Z,101136.96
2018-04-19T05:24:07.627Z,101134.47
2018-04-19T05:26:41.497Z,101139.72
2018-04-19T05:29:15.339Z,101136.38
2018-04-19T05:31:49.745Z,101139.84
2018-04-19T05:34:24.117Z,101130.89
2018-04-19T05:36:58.033Z,101141.73
2018-04-19T05:39:32.985Z,101139.17
2018-04-19T05:42:08.592Z,101134.15
2018-04-19T05:44:42.194Z,101141.33
2018-04-19T05:47:16.860Z,101138.50
2018-04-19T05:49:52.374Z,101135.77
2018-04-19T05:52:26.484Z,101139.18
2018-04-19T05:55:02.932Z,101147.23
2018-04-19T05:57:36.907Z,101144.48
2018-04-19T06:00:12.798Z,101144.21
2018-04-19T06:02:46.565Z,101152.51
2018-04-19T06:05:20.514Z,101147.91
2018-04-19T06:07:56.288Z,101149.11
2018-04-19T06:10:30.781Z,101147.75
2018-04-19T06:13:04.197Z,101152.95
2018-04-19T06:15:38.708Z,101154.64
2018-04-19T06:18:14.082Z,101155.85
2018-04-19T06:20:48.686Z,101153.80
2018-04-19T06:23:23.954Z,101145.57
2018-04-19T06:25:58.271Z,101148.74
2018-04-19T06:28:33.079Z,101157.12
2018-04-19T06:31:07.305Z,101148.48
2018-04-19T06:33:41.104Z,101154.41
2018-04-19T06:36:22.302Z,101155.36
2018-04-19T06:39:01.261Z,101160.80
2018-04-19T06:41:36.129Z,101152.88
2018-04-19T06:44:10.567Z,101148.83
2018-04-19T06:46:44.470Z,101146.90
2018-04-19T06:49:21.713Z,101147.58
2018-04-19T06:52:18.938Z,101146.05
2018-04-19T06:54:58.882Z,101148.75
2018-04-19T06:57:32.690Z,101150.69
2018-04-19T07:00:06.679Z,101151.27
2018-04-19T07:02:46.122Z,101144.52
2018-04-19T07:05:33.644Z,101148.73
2018-04-19T07:08:12.188Z,101146.27
2018-04-19T07:10:46.069Z,101145.54
2018-04-19T07:13:19.992Z,101145.20
2018-04-19T07:15:56.115Z,101143.72
2018-04-19T07:18:34.765Z,101134.09
2018-04-19T07:21:11.585Z,101140.86
2018-04-19T07:23:49.612Z,101135.53
2018-04-19T07:26:24.752Z,101138.38
2018-04-19T07:29:03.819Z,101131.89
2018-04-19T07:31:39.545Z,101137.00
2018-04-19T07:34:16.166Z,101132.60
2018-04-19T07:36:50.171Z,101131.69
2018-04-19T07:39:24.176Z,101136.48
2018-04-19T07:41:57.890Z,101134.87
2018-04-19T07:44:31.793Z,101117.79
2018-04-19T07:47:05.546Z,101131.63
2018-04-19T07:49:38.753Z,101128.14
2018-04-19T07:52:12.371Z,101129.62
2018-04-19T07:54:46.287Z,101126.89
2018-04-19T07:58:22.945Z,101132.30
2018-04-19T08:00:56.515Z,101128.62
2018-04-19T08:03:30.373Z,101125.20
2018-04-19T08:06:04.591Z,101116.59
2018-04-19T08:08:38.037Z,101114.91
2018-04-19T08:11:11.799Z,101119.16
2018-04-19T08:13:45.904Z,101120.89
2018-04-19T08:16:19.439Z,101114.87
2018-04-19T08:18:53.325Z,101114.28
2018-04-19T08:21:29.793Z,101111.24
2018-04-19T08:24:03.512Z,101110.11
2018-04-19T08:26:37.493Z,101109.78
2018-04-19T08:29:11.474Z,101103.82
2018-04-19T08:31:46.033Z,101114.16
2018-04-19T08:34:19.827Z,101112.16
2018-04-19T08:36:53.363Z,101111.59
2018-04-19T08:39:28.358Z,101114.98
2018-04-19T08:42:02.122Z,101112.45
2018-04-19T08:44:35.402Z,101108.41
2018-04-19T08:47:10.358Z,101107.72
2018-04-19T08:49:43.672Z,101106.35
2018-04-19T08:52:17.482Z,101113.69
2018-04-19T08:54:51.977Z,101106.98
2018-04-19T08:57:25.423Z,101104.01
2018-04-19T08:59:59.097Z,101105.84
2018-04-19T09:02:35.784Z,101099.70
2018-04-19T09:05:09.908Z,101111.78
2018-04-19T09:07:43.398Z,101101.34
2018-04-19T09:10:18.104Z,101095.58
2018-04-19T09:12:54.144Z,101100.70
2018-04-19T09:15:27.567Z,101096.55
2018-04-19T09:18:04.101Z,101090.02
2018-04-19T09:20:38.986Z,101094.16
2018-04-19T09:23:14.658Z,101094.87
2018-04-19T09:25:48.222Z,101090.03
2018-04-19T09:28:22.658Z,101086.02
2018-04-19T09:30:57.909Z,101089.97
2018-04-19T09:33:38.491Z,101088.41
2018-04-19T09:36:13.100Z,101089.90
2018-04-19T09:38:49.602Z,101096.20
2018-04-19T09:41:25.684Z,101088.77
2018-04-19T09:44:00.184Z,101081.35
2018-04-19T09:46:35.076Z,101081.81
2018-04-19T09:49:09.316Z,101073.47
2018-04-19T09:51:43.971Z,101075.86
2018-04-19T09:54:18.129Z,101067.53
2018-04-19T09:56:52.103Z,101071.83
2018-04-19T09:59:26.835Z,101065.05
2018-04-19T10:02:04.438Z,101066.27
2018-04-19T10:04:38.671Z,101065.72
2018-04-19T10:07:12.112Z,101065.53
2018-04-19T10:09:45.901Z,101065.66
2018-04-19T10:12:20.755Z,101063.37
2018-04-19T10:14:55.030Z,101055.27
2018-04-19T10:17:29.710Z,101057.36
2018-04-19T10:20:04.400Z,101047.58
2018-04-19T10:22:38.171Z,101054.27
2018-04-19T10:25:11.902Z,101044.29
2018-04-19T10:27:46.356Z,101040.76
2018-04-19T10:30:20.413Z,101044.44
2018-04-19T10:32:54.160Z,101040.97
2018-04-19T10:35:27.706Z,101038.36
2018-04-19T10:38:01.943Z,101039.61
2018-04-19T10:40:35.691Z,101043.07
2018-04-19T10:43:10.242Z,101025.57
2018-04-19T10:45:44.708Z,101032.34
2018-04-19T10:48:18.076Z,101027.83
2018-04-19T10:50:51.557Z,101023.86
2018-04-19T10:53:25.598Z,101024.07
2018-04-19T10:55:58.993Z,101019.88
2018-04-19T10:58:32.505Z,101020.58
2018-04-19T11:01:07.605Z,101018.39
2018-04-19T11:03:41.179Z,101007.30
2018-04-19T11:06:15.114Z,101004.74
2018-04-19T11:08:49.184Z,101006.16
2018-04-19T11:11:22.686Z,101004.34
2018-04-19T11:13:56.162Z,101004.55
2018-04-19T11:16:30.196Z,101005.50
2018-04-19T11:19:03.858Z,101004.34
2018-04-19T11:21:38.335Z,100996.50
2018-04-19T11:24:12.934Z,100999.86
2018-04-19T11:26:47.316Z,100997.38
2018-04-19T11:29:21.140Z,100996.75
2018-04-19T11:31:54.623Z,100989.27
2018-04-19T11:34:28.651Z,100993.26
2018-04-19T11:37:02.570Z,100990.02
2018-04-19T11:39:36.704Z,100992.40
2018-04-19T11:42:10.976Z,100982.77
2018-04-19T11:44:44.830Z,100991.60
2018-04-19T11:47:18.740Z,100986.80
2018-04-19T11:49:52.934Z,100981.77
2018-04-19T11:52:26.385Z,100981.30
2018-04-19T11:55:00.287Z,100981.34
2018-04-19T11:57:35.623Z,100981.22
2018-04-19T12:00:09.844Z,100980.66
2018-04-19T12:02:43.211Z,100980.59
2018-04-19T12:05:16.958Z,100984.62
2018-04-19T12:07:51.939Z,100983.61
2018-04-19T12:10:25.960Z,100983.13
2018-04-19T12:12:59.451Z,100968.05
2018-04-19T12:15:36.355Z,100966.87
2018-04-19T12:18:09.854Z,100965.20
2018-04-19T12:20:44.922Z,100963.60
2018-04-19T12:23:21.688Z,100965.07
2018-04-19T12:25:57.812Z,100965.84
2018-04-19T12:28:51.182Z,100962.60
2018-04-19T12:31:29.728Z,100956.51
2018-04-19T12:34:03.634Z,100957.06
2018-04-19T12:36:43.446Z,100956.52
2018-04-19T12:39:22.686Z,100948.56
2018-04-19T12:41:56.795Z,100943.06
2018-04-19T12:44:30.651Z,100944.53
2018-04-19T12:47:04.172Z,100942.35
2018-04-19T12:49:40.266Z,100943.34
2018-04-19T12:52:15.236Z,100944.33
2018-04-19T12:54:53.377Z,100933.50
2018-04-19T12:57:30.062Z,100942.56
2018-04-19T13:00:07.339Z,100937.61
2018-04-19T13:02:43.214Z,100930.61
2018-04-19T13:05:19.703Z,100938.16
2018-04-19T13:07:55.077Z,100930.88
2018-04-19T13:10:29.529Z,100920.98
2018-04-19T13:13:08.210Z,100928.47
2018-04-19T13:15:44.462Z,100922.58
2018-04-19T13:18:29.592Z,100915.01
2018-04-19T13:21:21.890Z,100906.72
2018-04-19T13:23:57.153Z,100909.66
2018-04-19T13:26:31.236Z,100906.11
2018-04-19T13:29:06.032Z,100904.21
2018-04-19T13:35:12.862Z,100897.30
2018-04-19T13:37:48.121Z,100891.97
2018-04-19T13:40:23.190Z,100891.90
2018-04-19T13:42:56.991Z,100889.83
2018-04-19T13:45:31.055Z,100884.05
2018-04-19T13:48:05.744Z,100884.11
2018-04-19T13:50:40.844Z,100880.75
2018-04-19T13:53:14.677Z,100874.34
2018-04-19T13:55:48.619Z,100878.02
2018-04-19T13:58:22.385Z,100871.77
2018-04-19T14:00:56.228Z,100867.20
2018-04-19T14:03:30.841Z,100872.64
2018-04-19T14:06:05.205Z,100870.70
2018-04-19T14:08:40.874Z,100859.23
2018-04-19T14:11:14.335Z,100855.70
2018-04-19T14:13:49.561Z,100852.92
2018-04-19T14:16:23.171Z,100847.38
2018-04-19T14:18:56.614Z,100840.50
2018-04-19T14:21:30.925Z,100843.81
2018-04-19T14:24:04.467Z,100833.40
2018-04-19T14:26:39.382Z,100829.45
2018-04-19T14:29:14.300Z,100826.44
2018-04-19T14:31:47.965Z,100825.48
2018-04-19T14:34:22.320Z,100820.23
2018-04-19T14:36:58.210Z,100828.95
2018-04-19T14:39:32.126Z,100822.34
2018-04-19T14:42:05.758Z,100823.56
2018-04-19T14:44:39.522Z,100825.25
2018-04-19T14:47:13.755Z,100824.09
2018-04-19T14:49:48.839Z,100818.02
2018-04-19T14:53:26.375Z,100820.45
2018-04-19T14:56:00.336Z,100812.77
2018-04-19T14:58:34.915Z,100809.73
2018-04-19T15:01:10.470Z,100814.30
2018-04-19T15:03:44.890Z,100808.78
2018-04-19T15:06:21.373Z,100811.15
2018-04-19T15:08:58.856Z,100815.45
2018-04-19T15:16:51.861Z,100816.50
2018-04-19T15:19:28.491Z,100808.88
2018-04-19T15:22:02.254Z,100811.48
2018-04-19T15:24:36.605Z,100812.54
2018-04-19T15:29:51.440Z,100799.34
2018-04-19T15:32:29.973Z,100800.43
2018-04-19T15:35:04.327Z,100804.03
2018-04-19T15:37:54.013Z,100800.32
2018-04-19T15:40:47.311Z,100801.96
2018-04-19T15:43:25.129Z,100794.72
2018-04-19T15:46:01.085Z,100793.98
2018-04-19T15:48:35.230Z,100799.91
2018-04-19T15:51:08.869Z,100799.09
2018-04-19T15:53:44.170Z,100794.97
2018-04-19T15:56:22.785Z,100799.16
2018-04-19T15:59:05.644Z,100799.83
2018-04-19T16:01:43.558Z,100792.33
2018-04-19T16:04:20.337Z,100794.15
2018-04-19T16:06:57.381Z,100795.95
2018-04-19T16:09:33.123Z,100786.19
2018-04-19T16:12:08.287Z,100786.84
2018-04-19T16:14:48.044Z,100780.58
2018-04-19T16:17:23.102Z,100790.73
2018-04-19T16:19:57.083Z,100786.50
2018-04-19T16:22:31.625Z,100784.89
2018-04-19T16:25:07.786Z,100777.91
2018-04-19T16:27:41.727Z,100780.22
2018-04-19T16:30:15.576Z,100778.27
2018-04-19T16:32:49.386Z,100775.14
2018-04-19T16:35:23.802Z,100775.02
2018-04-19T16:37:57.464Z,100770.39
2018-04-19T16:40:32.517Z,100771.77
2018-04-19T16:43:06.967Z,100769.95
2018-04-19T16:45:40.523Z,100773.02
2018-04-19T16:48:14.143Z,100777.07
2018-04-19T16:50:48.326Z,100773.61
2018-04-19T16:53:22.128Z,100771.03
2018-04-19T16:55:56.037Z,100772.73
2018-04-19T16:58:31.399Z,100757.53
2018-04-19T17:01:09.947Z,100770.45
2018-04-19T17:03:44.516Z,100772.20
2018-04-19T17:06:18.350Z,100772.16
2018-04-19T17:09:01.419Z,100769.96
2018-04-19T17:11:52.281Z,100768.27
2018-04-19T17:14:34.283Z,100766.29
2018-04-19T17:17:12.948Z,100758.11
2018-04-19T17:19:46.652Z,100765.98
2018-04-19T17:22:21.964Z,100764.89
2018-04-19T17:24:55.692Z,100765.20
2018-04-19T17:27:30.077Z,100767.06
2018-04-19T17:30:09.894Z,100765.59
2018-04-19T17:32:46.864Z,100764.73
2018-04-19T17:35:21.517Z,100769.40
2018-04-19T17:37:58.758Z,100764.75
2018-04-19T17:40:34.298Z,100760.27
2018-04-19T17:43:07.901Z,100764.49
2018-04-19T17:45:42.643Z,100766.08
2018-04-19T17:48:17.103Z,100762.92
2018-04-19T17:50:50.680Z,100770.41
2018-04-19T17:53:25.039Z,100770.97
2018-04-19T17:55:59.515Z,100767.80
2018-04-19T17:58:34.638Z,100764.19
2018-04-19T18:01:08.623Z,100769.14
2018-04-19T18:03:42.090Z,100759.24
2018-04-19T18:08:48.733Z,100770.08
2018-04-19T18:11:23.300Z,100776.33
2018-04-19T18:13:57.591Z,100774.26
2018-04-19T18:16:32.596Z,100776.48
2018-04-19T18:19:06.868Z,100774.84
2018-04-19T18:21:41.108Z,100773.59
2018-04-19T18:24:14.978Z,100778.85
2018-04-19T18:26:49.934Z,100779.28
2018-04-19T18:29:23.520Z,100777.00
2018-04-19T18:31:57.323Z,100782.67
2018-04-19T18:34:33.118Z,100781.91
2018-04-19T18:37:06.891Z,100785.45
2018-04-19T18:39:40.760Z,100788.97
2018-04-19T18:42:14.689Z,100791.21
2018-04-19T18:44:49.873Z,100794.92
2018-04-19T18:47:23.909Z,100796.25
2018-04-19T18:49:57.344Z,100794.20
2018-04-19T18:52:33.675Z,100790.83
2018-04-19T18:55:07.561Z,100784.37
2018-04-19T18:57:42.647Z,100793.53
2018-04-19T19:00:16.929Z,100792.75
2018-04-19T19:02:50.493Z,100796.81
2018-04-19T19:05:24.564Z,100802.89
2018-04-19T19:07:58.604Z,100799.89
2018-04-19T19:10:32.213Z,100802.66
2018-04-19T19:13:06.508Z,100794.52
2018-04-19T19:15:48.997Z,100793.84
2018-04-19T19:20:38.494Z,100801.27
2018-04-19T19:23:13.441Z,100798.44
2018-04-19T19:25:48.116Z,100801.45
2018-04-19T19:28:22.085Z,100803.63
2018-04-19T19:30:55.830Z,100808.98
2018-04-19T19:33:31.941Z,100809.87
2018-04-19T19:36:06.043Z,100802.23
2018-04-19T19:38:39.572Z,100798.44
2018-04-19T19:41:12.993Z,100804.73
2018-04-19T19:43:46.778Z,100802.86
2018-04-19T19:46:20.147Z,100811.59
2018-04-19T19:48:53.978Z,100808.53
2018-04-19T19:51:27.928Z,100808.45
2018-04-19T19:54:01.475Z,100801.39
2018-04-19T19:56:35.076Z,100801.11
2018-04-19T19:59:09.265Z,100798.98
2018-04-19T20:01:43.010Z,100795.47
2018-04-19T20:04:16.616Z,100797.02
2018-04-19T20:06:50.604Z,100794.74
2018-04-19T20:09:24.798Z,100797.48
2018-04-19T20:11:58.400Z,100794.74
2018-04-19T20:14:32.472Z,100797.88
2018-04-19T20:17:06.334Z,100797.02
2018-04-19T20:19:39.890Z,100801.72
2018-04-19T20:22:14.195Z,100795.98
2018-04-19T20:24:47.680Z,100797.83
2018-04-19T20:27:21.785Z,100796.94
2018-04-19T20:29:56.105Z,100799.20
2018-04-19T20:32:30.184Z,100794.08
2018-04-19T20:35:04.072Z,100791.97
2018-04-19T20:37:37.702Z,100792.95
2018-04-19T20:40:11.272Z,100795.67
2018-04-19T20:42:45.967Z,100793.70
2018-04-19T20:45:20.956Z,100789.94
2018-04-19T20:47:54.895Z,100788.01
2018-04-19T20:50:28.815Z,100781.27
2018-04-19T20:53:03.818Z,100787.36
2018-04-19T20:55:37.898Z,100785.94
2018-04-19T20:58:11.512Z,100784.42
2018-04-19T21:00:46.395Z,100782.08
2018-04-19T21:03:20.045Z,100776.69
2018-04-19T21:05:53.597Z,100777.74
2018-04-19T21:08:27.133Z,100778.28
2018-04-19T21:11:00.855Z,100780.23
2018-04-19T21:13:34.218Z,100778.88
2018-04-19T21:16:08.379Z,100774.11
2018-04-19T21:18:45.745Z,100774.94
2018-04-19T21:21:25.198Z,100780.48
2018-04-19T21:23:59.235Z,100781.88
2018-04-19T21:26:32.631Z,100781.70
2018-04-19T21:29:06.299Z,100779.03
2018-04-19T21:31:40.662Z,100775.73
2018-04-19T21:34:14.096Z,100770.95
2018-04-19T21:36:47.785Z,100770.22
2018-04-19T21:39:21.984Z,100768.59
2018-04-19T21:41:55.513Z,100767.52
2018-04-19T21:44:29.185Z,100774.01
2018-04-19T21:47:03.949Z,100775.57
2018-04-19T21:49:37.377Z,100769.70
2018-04-19T21:52:10.770Z,100763.48
2018-04-19T21:54:45.227Z,100766.28
2018-04-19T21:57:19.116Z,100765.31
2018-04-19T21:59:52.839Z,100758.39
2018-04-19T22:02:26.955Z,100756.84
2018-04-19T22:05:00.286Z,100755.87
2018-04-19T22:07:33.685Z,100760.99
2018-04-19T22:10:07.501Z,100750.14
2018-04-19T22:12:42.305Z,100748.32
2018-04-19T22:15:16.187Z,100751.11
2018-04-19T22:17:50.691Z,100753.00
2018-04-19T22:20:24.207Z,100749.89
2018-04-19T22:22:59.599Z,100746.78
2018-04-19T22:25:35.038Z,100748.77
2018-04-19T22:28:09.092Z,100753.80
2018-04-19T22:30:42.966Z,100748.39
2018-04-19T22:33:17.654Z,100748.46
2018-04-19T22:35:51.238Z,100745.34
2018-04-19T22:38:25.297Z,100742.97
2018-04-19T22:40:58.847Z,100741.37
2018-04-19T22:43:32.521Z,100743.27
2018-04-19T22:46:05.990Z,100741.09
2018-04-19T22:48:39.723Z,100741.92
2018-04-19T22:51:13.543Z,100747.64
2018-04-19T22:53:46.978Z,100746.66
2018-04-19T22:56:20.424Z,100745.05
2018-04-19T22:58:54.048Z,100741.20
2018-04-19T23:01:27.835Z,100744.88
2018-04-19T23:04:01.337Z,100738.08
2018-04-19T23:06:35.194Z,100745.00
2018-04-19T23:09:10.629Z,100747.32
2018-04-19T23:11:44.342Z,100748.93
2018-04-19T23:14:17.858Z,100749.39
2018-04-19T23:16:51.932Z,100746.16
2018-04-19T23:19:25.385Z,100745.87
2018-04-19T23:21:58.977Z,100747.80
2018-04-19T23:24:32.559Z,100746.34
2018-04-19T23:27:06.131Z,100745.16
2018-04-19T23:29:39.776Z,100744.02
2018-04-19T23:32:17.177Z,100740.71
2018-04-19T23:34:50.639Z,100742.02
2018-04-19T23:37:24.161Z,100733.58
2018-04-19T23:39:57.993Z,100749.25
2018-04-19T23:42:31.413Z,100742.33
2018-04-19T23:45:04.870Z,100737.94
2018-04-19T23:47:38.793Z,100742.32
2018-04-19T23:50:12.301Z,100742.92
2018-04-19T23:52:46.066Z,100743.84
2018-04-19T23:55:19.899Z,100740.11
2018-04-19T23:57:54.239Z,100738.43
